Time;durP1;ratioP1;P1;durP2;ratioP2;P2;SDS_P1;SDS_P2;PMS_P1;PMS_P2;Temp;Humidity;BMP_temperature;BMP_pressure;BME280_temperature;BME280_humidity;BME280_pressure;Samples;Min_cycle;Max_cycle;Signal;HPM_P1;HPM_P2
2022/08/21 00:02:22;;;;;;;10.38;6.93;;;12.60;99.90;;;;;;5054663;28;20111;-26
2022/08/21 00:04:50;;;;;;;15.82;8.23;;;12.50;99.90;;;;;;5053867;28;20049;-26
2022/08/21 00:07:17;;;;;;;12.98;7.75;;;12.60;99.90;;;;;;5055293;28;20057;-26
2022/08/21 00:09:44;;;;;;;13.15;7.43;;;12.60;99.90;;;;;;5053059;28;20049;-26
2022/08/21 00:12:10;;;;;;;13.75;7.28;;;12.60;99.90;;;;;;5053342;28;20056;-26
2022/08/21 00:14:36;;;;;;;12.15;7.40;;;12.60;99.90;;;;;;5054311;28;20525;-26
2022/08/21 00:17:03;;;;;;;14.68;8.02;;;12.60;99.90;;;;;;5054250;28;20495;-25
2022/08/21 00:19:29;;;;;;;13.80;7.20;;;12.50;1.00;;;;;;5053170;28;20092;-26
2022/08/21 00:21:55;;;;;;;15.75;8.98;;;12.50;1.00;;;;;;5053021;28;20041;-26
2022/08/21 00:24:22;;;;;;;12.48;8.43;;;12.60;1.00;;;;;;5053767;28;20055;-26
2022/08/21 00:26:48;;;;;;;16.67;8.63;;;12.60;1.00;;;;;;5052123;28;20503;-26
2022/08/21 00:29:14;;;;;;;12.43;7.63;;;12.60;1.00;;;;;;5053165;28;20403;-25
2022/08/21 00:31:41;;;;;;;11.38;7.75;;;12.60;1.00;;;;;;5053286;28;20080;-25
2022/08/21 00:34:08;;;;;;;13.10;7.82;;;12.60;1.00;;;;;;5053968;28;20051;-25
2022/08/21 00:36:34;;;;;;;15.68;8.48;;;12.60;1.00;;;;;;5051268;28;20525;-28
2022/08/21 00:39:01;;;;;;;16.33;8.02;;;12.60;1.00;;;;;;5037249;28;20073;-26
2022/08/21 00:41:28;;;;;;;13.57;7.45;;;12.60;1.00;;;;;;5053266;28;20543;-26
2022/08/21 00:43:54;;;;;;;11.80;7.45;;;12.60;1.00;;;;;;5035821;28;20041;-26
2022/08/21 00:46:21;;;;;;;13.98;8.35;;;12.60;1.00;;;;;;5053388;28;20041;-26
2022/08/21 00:48:46;;;;;;;14.65;8.20;;;12.60;1.00;;;;;;5053763;28;20045;-25
2022/08/21 00:51:45;;;;;;;16.50;7.90;;;12.70;1.00;;;;;;5052662;28;20434;-25
2022/08/21 00:54:12;;;;;;;14.85;8.38;;;12.60;1.00;;;;;;5042334;28;20051;-25
2022/08/21 00:56:37;;;;;;;15.02;8.27;;;12.60;1.00;;;;;;5053344;28;20048;-25
2022/08/21 00:59:04;;;;;;;16.70;8.40;;;12.50;1.00;;;;;;5050837;28;20052;-26
2022/08/21 01:01:30;;;;;;;12.95;8.80;;;12.50;1.00;;;;;;5052753;28;20044;-25
2022/08/21 01:03:56;;;;;;;15.43;8.23;;;12.60;1.00;;;;;;5052501;28;20187;-26
2022/08/21 01:06:21;;;;;;;15.02;8.20;;;12.60;1.00;;;;;;5053762;28;20133;-26
2022/08/21 01:08:47;;;;;;;19.15;8.65;;;12.40;1.00;;;;;;5053243;28;20052;-25
2022/08/21 01:11:15;;;;;;;20.08;8.65;;;12.40;1.00;;;;;;5052311;28;20544;-25
2022/08/21 01:13:45;;;;;;;13.23;8.90;;;12.40;1.00;;;;;;5052808;28;20053;-25
2022/08/21 01:16:15;;;;;;;15.23;9.48;;;12.50;1.00;;;;;;5053654;28;20122;-25
2022/08/21 01:18:41;;;;;;;14.48;8.52;;;12.40;24.00;;;;;;5051657;28;20127;-26
2022/08/21 01:21:14;;;;;;;17.02;9.52;;;12.50;36.90;;;;;;5053706;28;20126;-27
2022/08/21 01:23:43;;;;;;;16.23;8.85;;;12.50;51.80;;;;;;5051718;28;20052;-28
2022/08/21 01:26:10;;;;;;;15.65;9.18;;;12.30;73.00;;;;;;5053116;28;20071;-27
2022/08/21 01:28:45;;;;;;;18.73;9.13;;;12.40;81.00;;;;;;5052012;28;20514;-27
2022/08/21 01:31:13;;;;;;;13.82;9.02;;;12.40;99.90;;;;;;5050792;28;20064;-29
2022/08/21 01:33:39;;;;;;;13.98;9.05;;;12.50;99.90;;;;;;5051169;28;20088;-27
2022/08/21 01:36:06;;;;;;;16.10;9.60;;;12.30;99.90;;;;;;5052873;28;20506;-28
2022/08/21 01:38:32;;;;;;;11.43;8.00;;;12.40;99.90;;;;;;5052681;28;20060;-27
2022/08/21 01:40:58;;;;;;;11.48;8.82;;;12.40;99.90;;;;;;5034326;28;20087;-27
2022/08/21 01:43:24;;;;;;;19.27;9.90;;;12.30;99.90;;;;;;5046111;28;20049;-27
2022/08/21 01:45:52;;;;;;;16.05;10.15;;;12.50;99.90;;;;;;5051279;28;20110;-29
2022/08/21 01:48:18;;;;;;;19.23;10.02;;;12.40;99.90;;;;;;5068196;28;20040;-28
2022/08/21 01:50:43;;;;;;;16.08;9.70;;;12.50;99.90;;;;;;5052874;28;20368;-27
2022/08/21 01:53:09;;;;;;;18.25;10.32;;;12.30;99.90;;;;;;5048473;28;20049;-27
2022/08/21 01:55:35;;;;;;;19.17;9.55;;;12.30;99.90;;;;;;5052400;28;20048;-28
2022/08/21 01:58:00;;;;;;;15.50;9.93;;;12.40;99.90;;;;;;5051582;28;20041;-28
2022/08/21 02:00:26;;;;;;;17.42;10.40;;;12.50;99.90;;;;;;5052300;28;20084;-27
2022/08/21 02:02:52;;;;;;;12.25;9.63;;;12.40;99.90;;;;;;5051777;28;20041;-28
2022/08/21 02:05:18;;;;;;;20.45;10.98;;;12.30;99.90;;;;;;5032056;28;20175;-27
2022/08/21 02:07:52;;;;;;;20.10;11.00;;;12.50;99.90;;;;;;5051945;28;20041;-28
2022/08/21 02:10:26;;;;;;;;;;;12.30;99.90;;;;;;5053161;28;20475;-27
2022/08/21 02:12:52;;;;;;;16.23;10.85;;;12.50;1.00;;;;;;5053380;28;19920;-27
2022/08/21 02:15:19;;;;;;;17.00;10.10;;;12.50;1.00;;;;;;5052235;28;20057;-27
2022/08/21 02:17:54;;;;;;;15.45;10.88;;;12.50;1.00;;;;;;5051154;28;20041;-28
2022/08/21 02:20:23;;;;;;;23.48;11.70;;;12.50;1.00;;;;;;5052648;28;20044;-27
2022/08/21 02:22:49;;;;;;;24.17;12.13;;;12.50;1.00;;;;;;5051952;28;20048;-27
2022/08/21 02:25:18;;;;;;;20.38;11.73;;;12.40;1.00;;;;;;5051390;28;20037;-27
2022/08/21 02:27:47;;;;;;;18.30;11.05;;;12.40;1.00;;;;;;5052313;28;20083;-27
2022/08/21 02:30:20;;;;;;;20.25;10.48;;;12.40;1.00;;;;;;5051023;28;20048;-27
2022/08/21 02:32:46;;;;;;;22.60;11.10;;;12.30;1.00;;;;;;5051995;28;20037;-28
2022/08/21 02:35:12;;;;;;;19.27;12.00;;;12.40;1.00;;;;;;5052601;28;20123;-27
2022/08/21 02:37:55;;;;;;;19.85;11.48;;;12.40;1.00;;;;;;5050810;28;20045;-27
2022/08/21 02:40:26;;;;;;;22.42;11.63;;;12.30;1.00;;;;;;5052046;28;20053;-27
2022/08/21 02:42:53;;;;;;;24.85;12.57;;;12.40;1.00;;;;;;5053148;28;20041;-27
2022/08/21 02:45:19;;;;;;;19.13;11.57;;;12.50;1.00;;;;;;5051342;28;20083;-27
2022/08/21 02:47:56;;;;;;;20.00;11.73;;;12.40;1.00;;;;;;5041956;28;20041;-27
2022/08/21 02:50:35;;;;;;;26.02;13.30;;;12.30;1.00;;;;;;5036176;28;20099;-28
2022/08/21 02:53:01;;;;;;;22.50;11.65;;;12.30;23.00;;;;;;5045831;28;20041;-27
2022/08/21 02:55:29;;;;;;;16.98;12.48;;;12.30;19.20;;;;;;5055973;28;20120;-27
2022/08/21 02:57:56;;;;;;;18.95;11.60;;;12.40;32.30;;;;;;5055756;28;20118;-27
2022/08/21 03:00:25;;;;;;;22.48;12.52;;;12.20;22.50;;;;;;5055521;28;20053;-27
2022/08/21 03:02:51;;;;;;;22.08;12.55;;;12.20;36.20;;;;;;5052533;28;20110;-27
2022/08/21 03:05:18;;;;;;;18.60;11.95;;;12.30;50.70;;;;;;5053608;28;20053;-28
2022/08/21 03:07:46;;;;;;;20.55;12.77;;;12.30;71.10;;;;;;5055659;28;20204;-28
2022/08/21 03:10:12;;;;;;;17.85;11.90;;;12.30;68.90;;;;;;5057164;28;20045;-27
2022/08/21 03:12:38;;;;;;;21.95;13.30;;;12.10;67.50;;;;;;5056022;28;20044;-27
2022/08/21 03:15:06;;;;;;;24.25;12.45;;;12.30;83.90;;;;;;5054008;28;20070;-28
2022/08/21 03:17:32;;;;;;;21.00;13.32;;;12.10;99.90;;;;;;5055425;28;20045;-27
2022/08/21 03:19:59;;;;;;;19.40;12.90;;;12.20;92.30;;;;;;5055422;28;20044;-27
2022/08/21 03:22:25;;;;;;;19.17;12.23;;;12.10;95.00;;;;;;5055423;28;20045;-27
2022/08/21 03:24:51;;;;;;;20.55;12.77;;;12.20;77.80;;;;;;5053754;28;20041;-27
2022/08/21 03:27:17;;;;;;;24.25;13.50;;;12.20;99.90;;;;;;5054981;28;20049;-27
2022/08/21 03:29:43;;;;;;;20.98;13.07;;;12.20;99.90;;;;;;5054249;28;20037;-27
2022/08/21 03:32:09;;;;;;;24.35;13.10;;;12.20;99.90;;;;;;5055390;28;20045;-27
2022/08/21 03:34:36;;;;;;;24.00;13.80;;;12.00;99.90;;;;;;5054115;28;20116;-27
2022/08/21 03:37:03;;;;;;;18.38;12.52;;;12.20;99.90;;;;;;5070343;28;20048;-27
2022/08/21 03:39:29;;;;;;;20.73;12.95;;;12.20;99.90;;;;;;5055032;28;20372;-27
2022/08/21 03:41:55;;;;;;;24.17;12.98;;;12.10;99.90;;;;;;5055735;28;20055;-27
2022/08/21 03:44:21;;;;;;;21.48;13.98;;;12.00;95.40;;;;;;5053838;28;20124;-27
2022/08/21 03:46:49;;;;;;;20.08;13.48;;;12.10;86.90;;;;;;5054532;28;20053;-27
2022/08/21 03:49:15;;;;;;;20.17;12.48;;;12.10;94.20;;;;;;5054484;28;20037;-27
2022/08/21 03:51:41;;;;;;;24.55;14.32;;;12.00;99.90;;;;;;5021594;28;20475;-27
2022/08/21 03:54:09;;;;;;;24.10;14.80;;;11.90;99.90;;;;;;5055225;28;20049;-27
2022/08/21 03:56:34;;;;;;;21.63;13.57;;;11.90;99.90;;;;;;5054395;28;20106;-27
2022/08/21 03:59:02;;;;;;;19.27;13.55;;;11.90;99.90;;;;;;5054845;28;20120;-27
2022/08/21 04:01:28;;;;;;;22.92;13.63;;;11.90;99.90;;;;;;5052472;28;20044;-27
2022/08/21 04:03:53;;;;;;;25.75;14.35;;;11.90;99.90;;;;;;5053690;28;20063;-27
2022/08/21 04:06:19;;;;;;;26.05;14.18;;;11.90;99.90;;;;;;5054123;28;20065;-27
2022/08/21 04:08:45;;;;;;;17.40;12.98;;;11.90;99.90;;;;;;5053613;28;20057;-27
2022/08/21 04:11:10;;;;;;;21.75;14.27;;;12.10;99.90;;;;;;5036768;28;20045;-27
2022/08/21 04:13:38;;;;;;;21.98;13.23;;;12.00;99.90;;;;;;5055141;28;20096;-27
2022/08/21 04:16:09;;;;;;;18.05;13.45;;;11.90;99.90;;;;;;5052931;28;20740;-27
2022/08/21 04:18:34;;;;;;;23.17;13.50;;;12.20;99.90;;;;;;5052954;28;20044;-27
2022/08/21 04:21:04;;;;;;;20.65;12.85;;;12.10;99.90;;;;;;5054300;28;20037;-27
2022/08/21 04:23:30;;;;;;;24.10;13.95;;;12.00;99.90;;;;;;5054830;28;20131;-27
2022/08/21 04:25:57;;;;;;;24.60;12.48;;;12.20;99.90;;;;;;5054928;28;20107;-27
2022/08/21 04:28:25;;;;;;;20.05;13.80;;;12.10;99.90;;;;;;5053007;28;20502;-27
2022/08/21 04:30:52;;;;;;;18.85;11.90;;;12.10;99.90;;;;;;5053282;28;20045;-27
2022/08/21 04:33:18;;;;;;;21.55;13.18;;;12.20;99.90;;;;;;5053006;28;20056;-27
2022/08/21 04:35:44;;;;;;;26.55;13.52;;;12.20;99.90;;;;;;5017038;28;20107;-27
2022/08/21 04:38:10;;;;;;;23.58;13.65;;;12.20;99.90;;;;;;5041634;28;20057;-27
2022/08/21 04:40:36;;;;;;;24.75;13.50;;;12.20;99.90;;;;;;5053386;28;20044;-27
2022/08/21 04:43:06;;;;;;;24.65;14.70;;;12.30;99.90;;;;;;5053419;28;20433;-27
2022/08/21 04:45:35;;;;;;;19.58;12.85;;;12.20;99.90;;;;;;5053916;28;20053;-27
2022/08/21 04:48:03;;;;;;;22.42;12.15;;;12.40;99.90;;;;;;5053854;28;20041;-27
2022/08/21 04:50:48;;;;;;;16.83;12.63;;;12.30;99.90;;;;;;5053713;28;20054;-27
2022/08/21 04:53:18;;;;;;;21.02;10.60;;;12.50;99.90;;;;;;5053761;28;20548;-27
2022/08/21 04:55:45;;;;;;;21.02;11.40;;;12.50;99.90;;;;;;5053012;28;20064;-27
2022/08/21 04:58:14;;;;;;;16.75;11.18;;;12.50;99.90;;;;;;5053202;28;20505;-27
2022/08/21 05:00:40;;;;;;;23.27;11.95;;;12.40;99.90;;;;;;5053257;28;20128;-27
2022/08/21 05:03:09;;;;;;;17.42;10.80;;;12.60;99.90;;;;;;5068701;28;20568;-27
2022/08/21 05:05:35;;;;;;;20.40;11.15;;;12.60;99.90;;;;;;5053147;28;20071;-26
2022/08/21 05:08:02;;;;;;;21.17;10.82;;;12.50;99.90;;;;;;5053491;28;20395;-27
2022/08/21 05:10:30;;;;;;;21.10;11.27;;;12.70;99.90;;;;;;5051293;28;20045;-27
2022/08/21 05:12:56;;;;;;;21.85;11.90;;;13.00;99.90;;;;;;5052996;28;20045;-27
2022/08/21 05:15:24;;;;;;;20.05;11.55;;;12.90;99.90;;;;;;5054012;28;20442;-27
2022/08/21 05:17:50;;;;;;;21.75;11.63;;;13.10;99.90;;;;;;5052905;28;20040;-27
2022/08/21 05:20:16;;;;;;;17.50;12.18;;;13.00;99.90;;;;;;5052533;28;20043;-27
2022/08/21 05:22:42;;;;;;;19.10;10.95;;;13.20;99.90;;;;;;5053245;28;20122;-27
2022/08/21 05:25:11;;;;;;;17.20;10.52;;;13.30;99.90;;;;;;5053560;28;20059;-27
2022/08/21 05:27:38;;;;;;;21.17;10.68;;;13.50;99.90;;;;;;5052100;28;20041;-27
2022/08/21 05:30:12;;;;;;;22.02;10.52;;;13.60;99.90;;;;;;5050995;28;20049;-27
2022/08/21 05:32:38;;;;;;;16.88;10.45;;;13.70;99.90;;;;;;5051046;28;20052;-27
2022/08/21 05:35:08;;;;;;;13.65;9.45;;;13.60;99.90;;;;;;5054290;28;20379;-27
2022/08/21 05:37:34;;;;;;;19.88;9.50;;;13.70;99.90;;;;;;5052508;28;20410;-27
2022/08/21 05:40:01;;;;;;;19.52;10.05;;;13.90;99.90;;;;;;5052759;28;20552;-27
2022/08/21 05:42:27;;;;;;;16.02;9.98;;;14.00;99.90;;;;;;5050966;28;20095;-27
2022/08/21 05:44:53;;;;;;;19.85;10.63;;;14.00;99.90;;;;;;5053593;28;20057;-27
2022/08/21 05:47:19;;;;;;;12.98;8.63;;;14.00;99.90;;;;;;5052961;28;20040;-27
2022/08/21 05:49:45;;;;;;;13.45;8.63;;;14.10;99.90;;;;;;5054230;28;20068;-28
2022/08/21 05:52:20;;;;;;;18.17;9.02;;;14.20;99.90;;;;;;5051941;28;20041;-27
2022/08/21 05:54:46;;;;;;;12.98;8.75;;;14.40;90.70;;;;;;5051232;28;20484;-27
2022/08/21 05:57:12;;;;;;;15.93;9.32;;;14.40;88.40;;;;;;5053364;28;20045;-27
2022/08/21 05:59:38;;;;;;;10.38;8.15;;;14.60;45.00;;;;;;5053414;28;20047;-28
2022/08/21 06:02:04;;;;;;;14.02;8.10;;;14.70;8.80;;;;;;5053377;28;20056;-28
2022/08/21 06:04:29;;;;;;;15.55;8.02;;;14.80;1.00;;;;;;5053978;28;20129;-27
2022/08/21 06:06:55;;;;;;;18.35;7.72;;;14.80;1.00;;;;;;5054664;28;20056;-27
2022/08/21 06:09:26;;;;;;;15.90;8.27;;;15.00;1.00;;;;;;5051790;28;20045;-27
2022/08/21 06:11:51;;;;;;;16.25;8.90;;;15.10;1.00;;;;;;5052701;28;20047;-27
2022/08/21 06:14:17;;;;;;;17.58;8.10;;;15.10;1.00;;;;;;5051455;28;20053;-27
2022/08/21 06:16:43;;;;;;;15.05;8.05;;;15.20;1.00;;;;;;5051484;28;20456;-28
2022/08/21 06:19:09;;;;;;;13.50;7.65;;;15.30;99.90;;;;;;5052887;28;20049;-27
2022/08/21 06:21:36;;;;;;;13.48;7.03;;;15.40;99.90;;;;;;5052916;28;20049;-28
2022/08/21 06:24:03;;;;;;;13.80;6.43;;;15.50;99.90;;;;;;5051443;28;20056;-27
2022/08/21 06:26:31;;;;;;;15.02;7.55;;;15.60;99.90;;;;;;5054707;28;20056;-27
2022/08/21 06:28:57;;;;;;;11.43;7.32;;;15.80;99.90;;;;;;5042666;28;20049;-27
2022/08/21 06:31:26;;;;;;;20.42;7.63;;;15.90;99.90;;;;;;5037217;28;20045;-27
2022/08/21 06:33:52;;;;;;;17.73;7.15;;;16.00;99.90;;;;;;5036675;28;20098;-28
2022/08/21 06:36:20;;;;;;;13.18;6.85;;;16.10;99.90;;;;;;5056550;28;20045;-27
2022/08/21 06:38:47;;;;;;;11.57;7.28;;;16.20;99.90;;;;;;5054134;28;20076;-27
2022/08/21 06:41:13;;;;;;;15.38;7.07;;;16.20;99.90;;;;;;5056021;28;20060;-27
2022/08/21 06:43:39;;;;;;;18.35;7.75;;;16.40;99.90;;;;;;5051200;28;20044;-27
2022/08/21 06:46:05;;;;;;;12.85;6.95;;;16.50;99.90;;;;;;5063859;28;20036;-27
2022/08/21 06:48:33;;;;;;;14.48;6.53;;;16.60;99.90;;;;;;5065269;28;20048;-28
2022/08/21 06:51:00;;;;;;;15.25;5.18;;;16.70;99.90;;;;;;5040941;28;20515;-28
2022/08/21 06:53:26;;;;;;;11.23;6.00;;;16.90;72.90;;;;;;5042171;28;20044;-27
2022/08/21 06:55:52;;;;;;;15.38;6.00;;;16.90;20.30;;;;;;5064751;28;20138;-28
2022/08/21 06:58:19;;;;;;;16.42;6.00;;;17.10;1.00;;;;;;5064820;28;20506;-28
2022/08/21 07:00:48;;;;;;;13.63;5.70;;;17.20;1.00;;;;;;5057008;28;20049;-27
2022/08/21 07:03:27;;;;;;;11.88;4.13;;;17.50;1.00;;;;;;5055527;28;20506;-28
2022/08/21 07:05:53;;;;;;;11.40;4.57;;;17.60;99.90;;;;;;5056410;28;20065;-28
2022/08/21 07:08:21;;;;;;;13.13;3.65;;;17.70;99.90;;;;;;5057502;28;20045;-28
2022/08/21 07:10:54;;;;;;;7.05;2.83;;;17.80;1.00;;;;;;5056348;28;20048;-27
2022/08/21 07:13:20;;;;;;;12.65;3.90;;;17.90;1.00;;;;;;5056670;28;20095;-29
2022/08/21 07:15:54;;;;;;;9.50;3.17;;;18.00;1.00;;;;;;5055110;28;20049;-27
2022/08/21 07:18:21;;;;;;;12.23;3.08;;;18.10;1.00;;;;;;5055601;28;20051;-27
2022/08/21 07:20:48;;;;;;;9.52;3.33;;;18.20;99.90;;;;;;5056450;28;20398;-27
2022/08/21 07:23:39;;;;;;;8.23;2.90;;;18.30;99.90;;;;;;5054227;28;20152;-30
2022/08/21 07:26:06;;;;;;;11.60;3.28;;;18.30;30.50;;;;;;5054444;28;20552;-27
2022/08/21 07:28:31;;;;;;;9.65;3.92;;;18.50;24.00;;;;;;5056070;28;20045;-28
2022/08/21 07:31:02;;;;;;;10.95;2.92;;;18.60;59.80;;;;;;5056405;28;20041;-28
2022/08/21 07:33:30;;;;;;;9.98;2.90;;;18.70;1.00;;;;;;5055689;28;20479;-27
2022/08/21 07:36:06;;;;;;;8.80;2.33;;;18.70;99.90;;;;;;5055015;28;20045;-27
2022/08/21 07:38:32;;;;;;;7.25;2.47;;;18.80;99.90;;;;;;5054799;28;20093;-28
2022/08/21 07:41:01;;;;;;;9.45;2.55;;;18.90;99.90;;;;;;5057562;28;20099;-28
2022/08/21 07:43:28;;;;;;;10.32;3.13;;;18.90;99.90;;;;;;5051971;28;20123;-28
2022/08/21 07:45:56;;;;;;;8.13;2.70;;;19.00;99.90;;;;;;5055742;28;20095;-28
2022/08/21 07:48:25;;;;;;;13.35;2.92;;;19.00;99.90;;;;;;5055831;28;20041;-28
2022/08/21 07:50:51;;;;;;;11.38;2.70;;;19.10;99.90;;;;;;5055591;28;20052;-28
2022/08/21 07:53:23;;;;;;;7.95;2.65;;;19.20;99.90;;;;;;5054882;28;20049;-29
2022/08/21 07:55:49;;;;;;;8.88;2.33;;;19.20;99.90;;;;;;5038308;28;20049;-29
2022/08/21 07:58:17;;;;;;;15.65;4.15;;;19.30;99.90;;;;;;5050673;28;20120;-27
2022/08/21 08:00:42;;;;;;;10.82;2.97;;;19.30;99.90;;;;;;5055407;28;20520;-28
2022/08/21 08:03:11;;;;;;;11.18;2.50;;;19.50;99.90;;;;;;5054473;28;20128;-28
2022/08/21 08:05:38;;;;;;;8.95;2.63;;;19.60;99.90;;;;;;5053984;28;20056;-28
2022/08/21 08:08:07;;;;;;;11.00;2.50;;;19.60;99.90;;;;;;5054221;28;20045;-27
2022/08/21 08:10:33;;;;;;;14.40;2.67;;;19.70;99.90;;;;;;5054145;28;20107;-28
2022/08/21 08:12:59;;;;;;;9.75;2.63;;;19.80;99.90;;;;;;5053650;28;20036;-28
2022/08/21 08:15:26;;;;;;;8.40;2.33;;;19.90;99.90;;;;;;5037557;28;20399;-28
2022/08/21 08:17:52;;;;;;;8.23;2.47;;;20.00;99.90;;;;;;5054314;28;20076;-27
2022/08/21 08:20:26;;;;;;;9.93;2.38;;;20.00;99.90;;;;;;5053791;28;20098;-28
2022/08/21 08:22:55;;;;;;;11.30;2.80;;;20.00;99.90;;;;;;5053814;28;20530;-27
2022/08/21 08:25:22;;;;;;;9.88;2.58;;;20.10;99.90;;;;;;5053687;28;20045;-28
2022/08/21 08:27:53;;;;;;;10.90;2.60;;;20.10;99.90;;;;;;5054217;28;20049;-27
2022/08/21 08:30:23;;;;;;;11.70;3.28;;;20.20;99.90;;;;;;5054902;28;20558;-28
2022/08/21 08:32:49;;;;;;;11.20;3.05;;;20.30;99.90;;;;;;5054831;28;20045;-28
2022/08/21 08:35:16;;;;;;;10.65;2.45;;;20.50;99.90;;;;;;5055020;28;20402;-29
2022/08/21 08:37:48;;;;;;;21.00;4.07;;;20.60;99.90;;;;;;5054492;28;20128;-28
2022/08/21 08:40:35;;;;;;;12.57;2.90;;;20.50;99.90;;;;;;5038139;28;20052;-28
2022/08/21 08:43:08;;;;;;;14.23;3.22;;;20.70;99.90;;;;;;5054438;28;20052;-27
2022/08/21 08:45:38;;;;;;;9.95;3.17;;;20.70;99.90;;;;;;5054715;28;20082;-28
2022/08/21 08:48:09;;;;;;;13.20;2.85;;;20.80;39.70;;;;;;5052867;28;20045;-28
2022/08/21 08:50:49;;;;;;;9.43;2.83;;;20.90;99.90;;;;;;5055088;28;20056;-28
2022/08/21 08:53:28;;;;;;;11.32;3.17;;;21.10;99.90;;;;;;5053836;28;20033;-27
2022/08/21 08:55:55;;;;;;;11.13;3.55;;;21.20;99.90;;;;;;5054414;28;20053;-28
2022/08/21 08:58:37;;;;;;;11.13;2.90;;;21.20;94.60;;;;;;5054865;28;20127;-28
2022/08/21 09:01:11;;;;;;;16.97;4.40;;;21.20;1.00;;;;;;5053894;28;20048;-28
2022/08/21 09:03:39;;;;;;;9.75;2.42;;;21.10;1.00;;;;;;5057514;28;20118;-28
2022/08/21 09:06:10;;;;;;;11.80;2.97;;;21.40;99.90;;;;;;5053605;28;20442;-28
2022/08/21 09:08:59;;;;;;;12.43;3.67;;;21.80;99.90;;;;;;5057276;28;20045;-28
2022/08/21 09:12:15;;;;;;;14.10;3.83;;;22.50;99.90;;;;;;5054408;28;20055;-28
2022/08/21 09:14:52;;;;;;;13.65;2.92;;;23.30;90.60;;;;;;5049590;28;20057;-29
2022/08/21 09:17:51;;;;;;;12.35;3.17;;;23.40;99.90;;;;;;5052282;28;20055;-28
2022/08/21 09:20:38;;;;;;;10.10;2.70;;;23.60;1.00;;;;;;5053755;28;20053;-28
2022/08/21 09:23:22;;;;;;;10.57;2.90;;;24.00;99.90;;;;;;5052965;28;20075;-28
2022/08/21 09:26:06;;;;;;;7.65;3.08;;;24.20;99.90;;;;;;5054950;28;20040;-28
2022/08/21 09:28:34;;;;;;;9.77;3.05;;;24.60;99.90;;;;;;5053875;28;20052;-28
2022/08/21 09:31:08;;;;;;;10.73;3.08;;;24.30;99.90;;;;;;5052300;28;20052;-29
2022/08/21 09:33:34;;;;;;;10.05;2.58;;;24.20;99.90;;;;;;5057156;28;20506;-28
2022/08/21 09:36:04;;;;;;;13.98;2.92;;;23.90;99.90;;;;;;5051770;28;20080;-28
2022/08/21 09:38:36;;;;;;;12.77;2.50;;;23.20;99.90;;;;;;5053926;28;20040;-28
2022/08/21 09:41:12;;;;;;;8.23;1.97;;;23.50;1.00;;;;;;5053514;28;20037;-28
2022/08/21 09:43:39;;;;;;;11.50;2.88;;;23.80;99.90;;;;;;5053909;28;20479;-28
2022/08/21 09:46:21;;;;;;;8.98;2.75;;;23.70;99.90;;;;;;5053823;28;20090;-28
2022/08/21 09:48:49;;;;;;;10.27;2.13;;;24.10;99.90;;;;;;5054293;28;20072;-28
2022/08/21 09:51:23;;;;;;;7.32;2.13;;;24.50;69.90;;;;;;5052400;28;20128;-29
2022/08/21 09:54:12;;;;;;;12.18;2.75;;;24.80;1.00;;;;;;5052930;28;20056;-29
2022/08/21 09:59:46;;;;;;;8.18;1.90;;;24.80;1.00;;;;;;5054972;28;20060;-28
2022/08/21 10:02:38;;;;;;;11.73;2.67;;;24.40;8.40;;;;;;5057631;28;20049;-28
2022/08/21 10:05:30;;;;;;;12.82;2.75;;;24.40;1.00;;;;;;5056809;28;20056;-28
2022/08/21 10:08:00;;;;;;;7.00;1.92;;;25.40;1.00;;;;;;5053026;28;20438;-28
2022/08/21 10:10:35;;;;;;;12.90;2.97;;;26.10;1.00;;;;;;5054107;28;20052;-28
2022/08/21 10:13:09;;;;;;;8.05;2.10;;;25.70;99.90;;;;;;5058332;28;20052;-28
2022/08/21 10:16:07;;;;;;;7.20;1.98;;;24.60;99.90;;;;;;5057157;28;20384;-28
2022/08/21 10:18:48;;;;;;;8.55;1.83;;;23.80;1.00;;;;;;5057329;28;20504;-29
2022/08/21 10:21:36;;;;;;;8.15;2.22;;;24.00;99.90;;;;;;5056492;28;20490;-29
2022/08/21 10:24:28;;;;;;;9.35;2.17;;;23.80;1.00;;;;;;5057180;28;20044;-28
2022/08/21 10:27:28;;;;;;;12.45;2.80;;;23.60;1.00;;;;;;5057265;28;20049;-28
2022/08/21 10:30:09;;;;;;;9.93;2.75;;;24.10;1.00;;;;;;5056161;28;20053;-28
2022/08/21 10:33:11;;;;;;;10.13;2.30;;;23.90;54.90;;;;;;5056153;28;20048;-29
2022/08/21 10:35:57;;;;;;;10.27;2.35;;;23.60;99.90;;;;;;5057132;28;20060;-28
2022/08/21 10:39:01;;;;;;;8.23;1.90;;;23.20;1.00;;;;;;5057004;28;20052;-28
2022/08/21 10:41:58;;;;;;;7.82;1.88;;;23.00;1.00;;;;;;5047232;28;20118;-28
2022/08/21 10:44:44;;;;;;;7.93;1.63;;;22.90;64.60;;;;;;5039929;28;20114;-28
2022/08/21 10:47:32;;;;;;;10.95;2.33;;;22.80;99.90;;;;;;5056876;28;20120;-28
2022/08/21 10:50:12;;;;;;;6.07;1.65;;;23.30;99.90;;;;;;5056652;28;20084;-28
2022/08/21 10:53:14;;;;;;;7.25;2.25;;;24.00;4.10;;;;;;5055720;28;20120;-28
2022/08/21 10:55:46;;;;;;;6.55;1.67;;;24.50;1.00;;;;;;5056154;28;20040;-29
2022/08/21 10:58:24;;;;;;;10.00;2.38;;;25.10;99.90;;;;;;5056609;28;20124;-28
2022/08/21 11:01:00;;;;;;;9.52;2.55;;;26.00;99.90;;;;;;5034002;28;20077;-28
2022/08/21 11:03:33;;;;;;;6.00;2.00;;;26.40;99.90;;;;;;5055438;28;20048;-31
2022/08/21 11:06:22;;;;;;;10.10;2.63;;;25.90;6.10;;;;;;5052913;28;20053;-29
2022/08/21 11:08:54;;;;;;;6.22;2.00;;;25.70;1.00;;;;;;5054078;28;20552;-30
2022/08/21 11:11:44;;;;;;;10.30;2.30;;;25.40;41.00;;;;;;5048064;28;20087;-29
2022/08/21 11:14:41;;;;;;;7.70;1.85;;;25.50;99.90;;;;;;5057207;28;20391;-29
2022/08/21 11:17:16;;;;;;;9.40;2.42;;;26.20;1.00;;;;;;5056353;28;20089;-28
2022/08/21 11:19:45;;;;;;;11.13;3.90;;;26.20;56.20;;;;;;5053215;28;20120;-28
2022/08/21 11:22:35;;;;;;;6.95;2.33;;;26.10;61.90;;;;;;5049954;28;20449;-28
2022/08/21 11:25:15;;;;;;;11.93;2.53;;;27.00;1.00;;;;;;5051869;28;20045;-29
2022/08/21 11:28:02;;;;;;;8.70;2.30;;;27.70;1.00;;;;;;5056145;28;20103;-29
2022/08/21 11:30:41;;;;;;;5.32;1.92;;;28.00;1.00;;;;;;5056059;28;20049;-29
2022/08/21 11:33:26;;;;;;;5.47;1.90;;;27.30;1.00;;;;;;5056610;28;20048;-29
2022/08/21 11:36:03;;;;;;;6.30;1.95;;;26.20;1.00;;;;;;5054797;28;20044;-29
2022/08/21 11:38:53;;;;;;;9.05;1.92;;;25.50;1.00;;;;;;5056132;28;20053;-29
2022/08/21 11:41:22;;;;;;;4.43;1.63;;;25.50;1.00;;;;;;5056653;28;20117;-29
2022/08/21 11:43:53;;;;;;;7.47;1.88;;;24.90;1.00;;;;;;5055713;28;20490;-28
2022/08/21 11:46:39;;;;;;;6.80;1.65;;;24.10;1.00;;;;;;5037435;28;20391;-29
2022/08/21 11:49:30;;;;;;;5.55;2.00;;;23.30;99.90;;;;;;5055649;28;20045;-30
2022/08/21 11:52:09;;;;;;;8.18;1.65;;;23.40;99.90;;;;;;5054557;28;20045;-29
2022/08/21 11:55:00;;;;;;;7.15;1.63;;;24.20;99.90;;;;;;5055128;28;20048;-28
2022/08/21 11:58:05;;;;;;;9.32;2.05;;;24.70;1.00;;;;;;5056136;28;20049;-28
2022/08/21 12:00:44;;;;;;;5.03;1.23;;;25.30;1.00;;;;;;5024096;28;20455;-28
2022/08/21 12:03:36;;;;;;;7.55;1.30;;;25.60;1.00;;;;;;5036656;28;20049;-29
2022/08/21 12:06:06;;;;;;;5.72;1.33;;;25.60;1.00;;;;;;5042641;28;20376;-28
2022/08/21 12:08:40;;;;;;;8.80;1.40;;;26.00;1.00;;;;;;5055191;28;20048;-29
2022/08/21 12:11:21;;;;;;;4.95;1.60;;;26.30;1.00;;;;;;5021921;28;20053;-28
2022/08/21 12:14:05;;;;;;;6.88;1.40;;;26.90;1.00;;;;;;5053931;28;20057;-29
2022/08/21 12:16:37;;;;;;;4.90;1.10;;;27.00;1.00;;;;;;5053963;28;20045;-29
2022/08/21 12:19:26;;;;;;;6.28;1.58;;;27.00;1.00;;;;;;5054198;28;20081;-28
2022/08/21 12:21:57;;;;;;;4.68;1.52;;;27.30;1.00;;;;;;5043099;28;20044;-29
2022/08/21 12:24:47;;;;;;;4.75;1.25;;;27.30;1.60;;;;;;5055464;28;20368;-29
2022/08/21 12:27:29;;;;;;;3.92;1.23;;;27.40;31.10;;;;;;5053791;28;20037;-28
2022/08/21 12:30:08;;;;;;;8.05;1.42;;;27.30;82.90;;;;;;5054221;28;20057;-30
2022/08/21 12:32:55;;;;;;;4.88;1.25;;;26.90;99.90;;;;;;5054805;28;20064;-29
2022/08/21 12:35:27;;;;;;;6.60;1.48;;;25.90;93.70;;;;;;5052574;28;20056;-29
2022/08/21 12:38:02;;;;;;;5.43;1.17;;;25.10;6.90;;;;;;5053628;28;20047;-28
2022/08/21 12:40:36;;;;;;;6.72;1.48;;;25.00;1.00;;;;;;5054474;28;20052;-29
2022/08/21 12:43:04;;;;;;;6.47;1.33;;;25.50;1.00;;;;;;5051882;28;20041;-29
2022/08/21 12:45:33;;;;;;;5.68;1.30;;;25.50;1.00;;;;;;5050241;28;20049;-29
2022/08/21 12:48:22;;;;;;;6.65;1.60;;;24.90;1.00;;;;;;5053878;28;20387;-29
2022/08/21 12:50:53;;;;;;;4.57;1.42;;;24.60;1.00;;;;;;5054982;28;20055;-29
2022/08/21 12:53:28;;;;;;;7.60;1.70;;;24.60;1.00;;;;;;5054699;28;20120;-29
2022/08/21 12:55:59;;;;;;;5.95;1.55;;;25.00;1.00;;;;;;5051041;28;20518;-29
2022/08/21 12:58:25;;;;;;;5.97;1.50;;;24.90;1.00;;;;;;5053448;28;20475;-29
2022/08/21 13:01:16;;;;;;;6.25;1.35;;;24.60;1.00;;;;;;5053084;28;20059;-30
2022/08/21 13:03:42;;;;;;;5.10;1.40;;;24.90;1.00;;;;;;5048477;28;20049;-29
2022/08/21 13:06:17;;;;;;;5.78;1.30;;;25.00;1.00;;;;;;5052208;28;20052;-30
2022/08/21 13:08:46;;;;;;;5.25;1.40;;;25.10;1.00;;;;;;5053870;28;20503;-29